Time;durP1;ratioP1;P1;durP2;ratioP2;P2;SDS_P1;SDS_P2;PMS_P1;PMS_P2;Temp;Humidity;BMP_temperature;BMP_pressure;BME280_temperature;BME280_humidity;BME280_pressure;Samples;Min_cycle;Max_cycle;Signal;HPM_P1;HPM_P2
2022/12/25 00:00:11;;;;;;;25.52;5.30;;;;;;;-144.47;100.00;64750.13;5002131;28;20508;-70
2022/12/25 00:02:37;;;;;;;21.45;6.43;;;;;;;-144.47;100.00;64770.06;4997945;28;20136;-71
2022/12/25 00:05:06;;;;;;;23.15;6.18;;;;;;;-144.47;100.00;64784.00;5002074;28;20022;-69
2022/12/25 00:07:31;;;;;;;19.25;6.15;;;;;;;-144.47;100.00;64780.03;4991444;28;20145;-70
2022/12/25 00:09:57;;;;;;;11.85;5.20;;;;;;;-144.47;100.00;64756.09;5002517;28;20435;-70
2022/12/25 00:12:22;;;;;;;17.10;5.43;;;;;;;-144.47;100.00;64778.03;4983795;28;20100;-69
2022/12/25 00:14:48;;;;;;;16.92;6.38;;;;;;;-144.47;100.00;64793.97;4996346;28;20021;-71
2022/12/25 00:17:14;;;;;;;25.88;5.97;;;;;;;-144.47;100.00;64768.06;4991860;28;20169;-72
2022/12/25 00:19:39;;;;;;;20.40;6.65;;;;;;;-144.47;100.00;64797.97;4992828;28;20030;-72
2022/12/25 00:22:04;;;;;;;18.23;6.35;;;;;;;-144.47;100.00;64833.84;4999394;28;20427;-70
2022/12/25 00:24:30;;;;;;;23.80;6.22;;;;;;;-144.47;100.00;64869.72;5007267;28;20392;-69
2022/12/25 00:26:55;;;;;;;15.15;5.00;;;;;;;-144.47;100.00;64889.66;4994967;28;20050;-71
2022/12/25 00:29:20;;;;;;;24.80;5.90;;;;;;;-144.47;100.00;64897.63;4999310;28;20025;-71
2022/12/25 00:31:46;;;;;;;20.10;6.45;;;;;;;-144.47;100.00;64945.47;5009081;28;20034;-71
2022/12/25 00:34:11;;;;;;;18.73;7.20;;;;;;;-144.47;100.00;64949.44;5008904;28;20108;-68
2022/12/25 00:36:37;;;;;;;16.48;5.88;;;;;;;-144.47;100.00;64973.38;5008291;28;20022;-70
2022/12/25 00:39:02;;;;;;;15.55;6.38;;;;;;;-144.47;100.00;64947.44;4991756;28;20506;-71
2022/12/25 00:44:12;;;;;;;19.65;6.75;;;;;;;-144.47;100.00;64981.34;5013062;28;20517;-70
2022/12/25 00:46:38;;;;;;;16.55;6.32;;;;;;;-144.47;100.00;65037.16;4999247;28;20120;-70
2022/12/25 00:49:04;;;;;;;26.42;6.38;;;;;;;-144.47;100.00;64973.38;4992273;28;20035;-70
2022/12/25 00:51:30;;;;;;;13.93;5.13;;;;;;;-144.47;100.00;65027.19;5002486;28;20056;-71
2022/12/25 00:53:55;;;;;;;14.50;5.28;;;;;;;-144.47;100.00;64997.28;4998454;28;20026;-71
2022/12/25 00:56:21;;;;;;;20.70;5.85;;;;;;;-144.47;100.00;65017.22;4993266;28;20034;-68
2022/12/25 00:58:46;;;;;;;12.30;4.40;;;;;;;-144.47;100.00;64989.31;5005322;28;20036;-70
2022/12/25 01:01:12;;;;;;;18.85;5.03;;;;;;;-144.47;100.00;65039.16;5008654;28;20038;-70
2022/12/25 01:03:37;;;;;;;18.40;5.07;;;;;;;-144.47;100.00;65015.22;5012818;28;20026;-70
2022/12/25 01:06:06;;;;;;;20.75;5.20;;;;;;;-144.47;100.00;64997.28;5012686;28;20117;-69
2022/12/25 01:08:36;;;;;;;22.25;5.53;;;;;;;-144.47;100.00;65029.19;4998461;28;20030;-69
2022/12/25 01:11:05;;;;;;;12.43;4.30;;;;;;;-144.47;100.00;65039.16;4999728;28;20033;-69
2022/12/25 01:13:33;;;;;;;;;;;;;;;-144.47;100.00;65039.16;4999057;28;20029;-71
2022/12/25 01:16:03;;;;;;;16.15;5.50;;;;;;;-144.47;100.00;65019.22;4993881;28;19918;-72
2022/12/25 01:18:29;;;;;;;14.20;5.13;;;;;;;-144.47;100.00;65092.97;4990007;28;20030;-70
2022/12/25 01:20:54;;;;;;;14.10;4.80;;;;;;;-144.47;100.00;65075.03;5004591;28;20100;-72
2022/12/25 01:23:19;;;;;;;14.02;5.18;;;;;;;-144.47;100.00;65090.97;5008296;28;20036;-71
2022/12/25 01:25:45;;;;;;;13.55;5.57;;;;;;;-144.47;100.00;65083.00;5008741;28;20112;-68
2022/12/25 01:28:10;;;;;;;23.13;5.25;;;;;;;-144.47;100.00;65081.00;4995555;28;20022;-71
2022/12/25 01:30:35;;;;;;;15.85;6.03;;;;;;;-144.47;100.00;65098.94;4992700;28;20033;-71
2022/12/25 01:33:01;;;;;;;16.48;5.93;;;;;;;-144.47;100.00;65081.00;4992844;28;20462;-70
2022/12/25 01:35:26;;;;;;;18.60;5.60;;;;;;;-144.47;100.00;65112.91;4992791;28;20026;-71
2022/12/25 01:37:52;;;;;;;15.55;4.30;;;;;;;-144.47;100.00;65166.72;5003804;28;20467;-68
2022/12/25 01:40:17;;;;;;;13.88;5.10;;;;;;;-144.47;100.00;65168.72;5004475;28;20026;-72
2022/12/25 01:42:43;;;;;;;18.83;5.93;;;;;;;-144.47;100.00;65164.72;5005753;28;20121;-70
2022/12/25 01:45:34;;;;;;;19.92;6.47;;;;;;;-144.47;100.00;65160.75;5012396;28;20026;-70
2022/12/25 01:48:03;;;;;;;21.65;6.03;;;;;;;-144.47;100.00;65170.69;5006264;28;20030;-70
2022/12/25 01:50:29;;;;;;;18.33;5.63;;;;;;;-144.47;100.00;65194.63;5002980;28;20026;-70
2022/12/25 01:52:56;;;;;;;14.23;4.97;;;;;;;-144.47;100.00;53028.88;4994943;28;20023;-67
2022/12/25 01:55:21;;;;;;;15.20;4.47;;;;;;;-144.47;100.00;53068.63;4991280;28;20106;-71
2022/12/25 01:57:47;;;;;;;15.25;5.15;;;;;;;-144.47;100.00;53032.88;4998971;28;20109;-67
2022/12/25 02:00:13;;;;;;;16.92;5.50;;;;;;;-144.47;100.00;53052.72;4974787;28;20132;-69
2022/12/25 02:02:40;;;;;;;18.92;6.00;;;;;;;-144.47;100.00;53046.75;5007105;28;20030;-67
2022/12/25 02:05:46;;;;;;;16.27;5.53;;;;;;;-144.47;100.00;53064.66;5011037;28;20046;-66
2022/12/25 02:08:15;;;;;;;18.55;5.45;;;;;;;-144.47;100.00;53048.75;4921630;29;20405;-69
2022/12/25 02:10:43;;;;;;;17.02;4.93;;;;;;;-144.47;100.00;53066.63;4993915;28;20048;-70
2022/12/25 02:13:11;;;;;;;16.20;5.20;;;;;;;-144.47;100.00;53060.66;4991670;28;20034;-71
2022/12/25 02:15:45;;;;;;;14.95;6.07;;;;;;;-144.47;100.00;53054.72;4985999;28;20026;-71
2022/12/25 02:18:49;;;;;;;17.67;6.95;;;;;;;-144.47;100.00;53066.63;5000145;28;20054;-71
2022/12/25 02:21:36;;;;;;;25.02;8.07;;;;;;;-144.47;100.00;53070.59;4995167;28;20408;-72
2022/12/25 02:24:34;;;;;;;27.35;9.63;;;;;;;-144.47;100.00;53048.75;5004834;28;20130;-69
2022/12/25 02:27:21;;;;;;;22.58;8.65;;;;;;;-144.47;100.00;53030.88;4997485;28;20034;-70
2022/12/25 02:29:54;;;;;;;27.67;7.93;;;;;;;-144.47;100.00;53052.72;4999155;28;20037;-70
2022/12/25 02:32:38;;;;;;;35.83;8.25;;;;;;;-144.47;100.00;53060.66;5003335;28;20029;-70
2022/12/25 02:35:18;;;;;;;24.10;7.63;;;;;;;-144.47;100.00;53022.94;4985752;28;20017;-70
2022/12/25 02:37:54;;;;;;;27.42;8.95;;;;;;;-144.47;100.00;53038.81;5000343;28;20030;-69
2022/12/25 02:40:33;;;;;;;28.38;7.95;;;;;;;-144.47;100.00;53036.84;5000777;28;20033;-72
2022/12/25 03:08:40;;;;;;;19.00;6.38;;;;;;;-144.47;100.00;53028.88;4986108;28;20037;-70
2022/12/25 03:16:49;;;;;;;13.90;4.93;;;;;;;-144.47;100.00;53044.78;4997466;28;20129;-69
2022/12/25 03:16:51;;;;;;;16.88;5.47;;;;;;;-144.47;100.00;53050.75;5006812;28;20121;-69
2022/12/25 03:27:34;;;;;;;27.17;6.15;;;;;;;-144.47;100.00;53024.91;5005133;28;20029;-67
2022/12/25 03:32:57;;;;;;;13.52;5.03;;;;;;;-144.47;100.00;53042.78;5000087;28;20033;-70
2022/12/25 03:35:43;;;;;;;31.73;6.50;;;;;;;-144.47;100.00;53054.72;5003147;28;20441;-69
2022/12/25 03:39:05;;;;;;;23.83;6.57;;;;;;;-144.47;100.00;53036.84;4983999;28;20030;-70
2022/12/25 04:37:12;;;;;;;14.35;4.38;;;;;;;-144.47;100.00;53068.63;4994072;28;20064;-72
2022/12/25 04:39:38;;;;;;;13.10;4.50;;;;;;;-144.47;100.00;53084.50;4993537;28;20053;-72
2022/12/25 04:42:03;;;;;;;16.83;4.97;;;;;;;-144.47;100.00;53076.56;5012514;28;20092;-69
2022/12/25 04:44:28;;;;;;;18.00;4.90;;;;;;;-144.47;100.00;53070.59;5001775;28;20026;-70
2022/12/25 04:46:54;;;;;;;18.35;5.50;;;;;;;-144.47;100.00;53080.53;5006263;28;20026;-67
2022/12/25 04:49:20;;;;;;;9.50;4.20;;;;;;;-144.47;100.00;53016.97;4999058;28;20442;-70
2022/12/25 04:51:45;;;;;;;16.65;4.63;;;;;;;-144.47;100.00;53036.84;4990314;28;20543;-68
2022/12/25 04:54:10;;;;;;;22.52;8.43;;;;;;;-144.47;100.00;53066.63;5002649;28;20069;-70
2022/12/25 04:56:36;;;;;;;18.38;5.28;;;;;;;-144.47;100.00;53050.75;4993779;28;20018;-68
2022/12/25 04:59:01;;;;;;;9.88;4.63;;;;;;;-144.47;100.00;53042.78;4994715;28;20026;-69
2022/12/25 05:01:26;;;;;;;15.25;4.90;;;;;;;-144.47;100.00;53066.63;5004680;28;20026;-70
2022/12/25 05:03:52;;;;;;;14.48;5.15;;;;;;;-144.47;100.00;53058.69;4994441;28;20113;-69
2022/12/25 05:06:17;;;;;;;13.60;4.50;;;;;;;-144.47;100.00;53082.53;4993911;28;20157;-69
2022/12/25 05:08:42;;;;;;;18.30;5.20;;;;;;;-144.47;100.00;53038.81;4994299;28;20042;-67
2022/12/25 05:11:11;;;;;;;12.98;5.03;;;;;;;-144.47;100.00;53062.66;5013480;28;20033;-70
2022/12/25 05:13:37;;;;;;;17.83;5.00;;;;;;;-144.47;100.00;53038.81;5012445;28;20076;-72
2022/12/25 05:16:05;;;;;;;18.73;4.60;;;;;;;-144.47;100.00;53076.56;5005220;28;20296;-66
2022/12/25 05:18:30;;;;;;;19.52;4.50;;;;;;;-144.47;100.00;53046.75;4974668;28;20602;-69
2022/12/25 05:20:55;;;;;;;15.25;5.28;;;;;;;-144.47;100.00;53064.66;5010256;28;20061;-69
2022/12/25 05:23:21;;;;;;;22.20;4.88;;;;;;;-144.47;100.00;53048.75;4998547;28;20105;-69
2022/12/25 05:25:46;;;;;;;12.57;4.65;;;;;;;-144.47;100.00;53048.75;4992217;28;20689;-69
2022/12/25 05:28:12;;;;;;;9.70;3.97;;;;;;;-144.47;100.00;53074.56;5004535;28;20061;-67
2022/12/25 05:30:37;;;;;;;11.63;4.35;;;;;;;-144.47;100.00;53016.97;4999121;28;20032;-70
2022/12/25 05:33:03;;;;;;;16.67;4.53;;;;;;;-144.47;100.00;53048.75;5011702;28;20479;-68
2022/12/25 05:35:29;;;;;;;16.40;4.78;;;;;;;-144.47;100.00;53046.75;5011107;28;20021;-70
2022/12/25 05:37:54;;;;;;;13.02;4.65;;;;;;;-144.47;100.00;53056.69;4997241;28;20026;-68
2022/12/25 05:40:20;;;;;;;18.70;4.97;;;;;;;-144.47;100.00;53024.91;4992563;28;20473;-70
2022/12/25 05:42:45;;;;;;;22.30;5.78;;;;;;;-144.47;100.00;53054.72;4991927;28;20033;-70
2022/12/25 05:45:11;;;;;;;18.25;4.63;;;;;;;-144.47;100.00;53054.72;5005473;28;20034;-70
2022/12/25 05:47:36;;;;;;;12.45;4.15;;;;;;;-144.47;100.00;53054.72;5004030;28;20095;-69
2022/12/25 05:50:03;;;;;;;14.43;4.63;;;;;;;-144.47;100.00;53026.91;4998226;28;20034;-69
2022/12/25 05:52:32;;;;;;;17.02;3.92;;;;;;;-144.47;100.00;53028.88;4991938;28;20018;-70
2022/12/25 05:54:59;;;;;;;17.30;5.95;;;;;;;-144.47;100.00;53011.00;4982299;28;20037;-70
2022/12/25 05:57:27;;;;;;;14.07;4.90;;;;;;;-144.47;100.00;53040.81;4991409;28;20014;-67
2022/12/25 05:59:52;;;;;;;26.30;6.22;;;;;;;-144.47;100.00;53052.72;5004405;28;20098;-69
2022/12/25 06:02:18;;;;;;;19.83;4.88;;;;;;;-144.47;100.00;53066.63;5005757;28;20116;-71
2022/12/25 06:04:43;;;;;;;16.58;4.32;;;;;;;-144.47;100.00;53016.97;5011147;28;20063;-70
2022/12/25 06:07:09;;;;;;;16.75;4.32;;;;;;;-144.47;100.00;53056.69;4998523;28;20026;-70
2022/12/25 06:09:34;;;;;;;13.27;3.80;;;;;;;-144.47;100.00;53046.75;4999395;28;20025;-67
2022/12/25 06:11:59;;;;;;;14.35;4.35;;;;;;;-144.47;100.00;53078.53;4999663;28;20054;-70
2022/12/25 06:14:25;;;;;;;11.32;4.43;;;;;;;-144.47;100.00;53030.88;4999235;28;20076;-71
2022/12/25 06:16:51;;;;;;;17.05;5.05;;;;;;;-144.47;100.00;53020.94;4997841;28;20030;-70
2022/12/25 06:19:17;;;;;;;12.38;4.35;;;;;;;-144.47;100.00;53038.81;4990369;28;20033;-70
2022/12/25 06:21:43;;;;;;;20.65;5.18;;;;;;;-144.47;100.00;53062.66;5009445;28;20041;-70
2022/12/25 06:24:08;;;;;;;13.32;4.53;;;;;;;-144.47;100.00;53018.97;4989898;28;20116;-70
2022/12/25 06:26:34;;;;;;;19.08;4.45;;;;;;;-144.47;100.00;53036.84;4991185;28;20484;-68
2022/12/25 06:28:59;;;;;;;16.27;4.63;;;;;;;-144.47;100.00;53032.88;5011413;28;20123;-71
2022/12/25 06:31:24;;;;;;;16.30;5.22;;;;;;;-144.47;100.00;53058.69;5009763;28;20428;-70
2022/12/25 06:33:50;;;;;;;18.80;5.70;;;;;;;-144.47;100.00;53062.66;4991314;28;20101;-70
2022/12/25 06:36:24;;;;;;;22.60;5.68;;;;;;;-144.47;100.00;53076.56;4994053;28;20400;-71
2022/12/25 06:38:50;;;;;;;16.70;5.43;;;;;;;-144.47;100.00;53040.81;5012007;28;20029;-70
2022/12/25 06:41:18;;;;;;;25.13;5.28;;;;;;;-144.47;100.00;53036.84;5009796;28;20037;-70
2022/12/25 06:43:48;;;;;;;13.23;5.70;;;;;;;-144.47;100.00;53015.00;5008680;28;20042;-70
2022/12/25 06:46:14;;;;;;;19.08;5.03;;;;;;;-144.47;100.00;53070.59;4997738;28;20027;-71
2022/12/25 06:48:47;;;;;;;11.32;4.93;;;;;;;-144.47;100.00;53060.66;4995567;28;20408;-70
2022/12/25 06:51:17;;;;;;;18.67;5.68;;;;;;;-144.47;100.00;53026.91;5003549;28;20038;-68
2022/12/25 06:53:43;;;;;;;14.88;4.90;;;;;;;-144.47;100.00;53066.63;4991142;28;20021;-71
2022/12/25 06:56:14;;;;;;;12.20;4.35;;;;;;;-144.47;100.00;53046.75;4990664;28;20026;-70
2022/12/25 06:58:51;;;;;;;13.43;4.88;;;;;;;-144.47;100.00;53060.66;5001381;28;20030;-70
2022/12/25 07:01:20;;;;;;;13.75;5.32;;;;;;;-144.47;100.00;53034.84;4989780;28;20065;-71
2022/12/25 07:03:48;;;;;;;23.25;6.03;;;;;;;-144.47;100.00;53042.78;4992184;28;20370;-70
2022/12/25 07:06:14;;;;;;;21.83;6.40;;;;;;;-144.47;100.00;53016.97;5003028;28;20041;-70
2022/12/25 07:08:39;;;;;;;17.83;6.60;;;;;;;-144.47;100.00;53028.88;4998829;28;20030;-71
2022/12/25 07:11:05;;;;;;;23.63;6.72;;;;;;;-144.47;100.00;53046.75;5006577;28;20037;-71
2022/12/25 07:13:31;;;;;;;15.25;6.40;;;;;;;-144.47;100.00;53020.94;4994766;28;20564;-70
2022/12/25 07:16:02;;;;;;;24.20;6.43;;;;;;;-144.47;100.00;53046.75;4989696;28;20022;-67
2022/12/25 07:18:28;;;;;;;23.45;7.07;;;;;;;-144.47;100.00;53036.84;4998758;28;20617;-68
2022/12/25 07:20:54;;;;;;;17.00;5.60;;;;;;;-144.47;100.00;53034.84;5009513;28;20125;-70
2022/12/25 07:23:21;;;;;;;14.77;5.88;;;;;;;-144.47;100.00;53013.00;5001467;28;20041;-70
2022/12/25 07:25:54;;;;;;;20.95;7.88;;;;;;;-144.47;100.00;53042.78;4993193;28;20129;-70
2022/12/25 07:28:19;;;;;;;17.75;6.57;;;;;;;-144.47;100.00;53028.88;5003539;28;20164;-69
2022/12/25 07:30:45;;;;;;;18.13;5.60;;;;;;;-144.47;100.00;53048.75;4996601;28;20518;-69
2022/12/25 07:33:10;;;;;;;16.63;5.15;;;;;;;-144.47;100.00;53026.91;5009840;28;20033;-67
2022/12/25 07:35:36;;;;;;;13.95;5.43;;;;;;;-144.47;100.00;53005.06;4996133;28;20640;-69
2022/12/25 07:38:01;;;;;;;21.15;5.68;;;;;;;-144.47;100.00;53062.66;4989332;28;20032;-70
2022/12/25 07:40:26;;;;;;;13.63;5.70;;;;;;;-144.47;100.00;53034.84;4993196;28;20526;-70
2022/12/25 07:42:52;;;;;;;19.90;5.05;;;;;;;-144.47;100.00;53036.84;4989376;28;20030;-68
2022/12/25 07:45:17;;;;;;;20.77;5.65;;;;;;;-144.47;100.00;53013.00;5003228;28;20021;-67
2022/12/25 07:47:43;;;;;;;15.18;5.95;;;;;;;-144.47;100.00;53024.91;5002764;28;20162;-71
2022/12/25 07:50:09;;;;;;;20.10;5.57;;;;;;;-144.47;100.00;53013.00;4992682;28;20396;-70
2022/12/25 07:52:34;;;;;;;25.95;6.82;;;;;;;-144.47;100.00;53011.00;4995167;28;20026;-69
2022/12/25 07:54:59;;;;;;;19.25;6.18;;;;;;;-144.47;100.00;53007.03;4998477;28;20585;-69
2022/12/25 07:57:25;;;;;;;18.50;6.05;;;;;;;-144.47;100.00;52993.13;4992137;28;20034;-71
2022/12/25 07:59:50;;;;;;;18.08;5.65;;;;;;;-144.47;100.00;53015.00;5002285;28;20028;-69
2022/12/25 08:02:15;;;;;;;20.77;5.18;;;;;;;-144.47;100.00;53009.03;4996076;28;20590;-71
2022/12/25 08:04:41;;;;;;;17.98;5.50;;;;;;;-144.47;100.00;53011.00;4997201;28;20035;-69
2022/12/25 08:07:06;;;;;;;16.65;4.55;;;;;;;-144.47;100.00;53015.00;4979230;28;20037;-67
2022/12/25 08:09:31;;;;;;;13.55;5.30;;;;;;;-144.47;100.00;53003.06;4997127;28;20074;-71
2022/12/25 08:11:57;;;;;;;15.07;4.15;;;;;;;-144.47;100.00;52981.22;5007629;28;20523;-70
2022/12/25 08:14:22;;;;;;;17.38;5.13;;;;;;;-144.47;100.00;52989.16;4994282;28;20110;-71
2022/12/25 08:16:47;;;;;;;22.50;4.90;;;;;;;-144.47;100.00;52991.16;4990661;28;20179;-69
2022/12/25 08:19:13;;;;;;;22.77;4.82;;;;;;;-144.47;100.00;52975.25;4979954;28;20719;-71
2022/12/25 08:21:39;;;;;;;20.40;5.22;;;;;;;-144.47;100.00;52997.09;4995453;28;20040;-69
2022/12/25 08:24:05;;;;;;;21.30;5.45;;;;;;;-144.47;100.00;53015.00;5007896;28;20029;-69
2022/12/25 08:26:30;;;;;;;19.40;5.22;;;;;;;-144.47;100.00;52979.22;4986122;28;20054;-71
2022/12/25 08:28:55;;;;;;;18.20;4.65;;;;;;;-144.47;100.00;52969.31;4996714;28;20127;-69
2022/12/25 08:31:32;;;;;;;19.02;5.55;;;;;;;-144.47;100.00;52987.19;4990600;28;20044;-71
2022/12/25 08:33:58;;;;;;;18.40;6.00;;;;;;;-144.47;100.00;53016.97;4989445;28;20023;-72
2022/12/25 08:36:23;;;;;;;18.83;5.72;;;;;;;-144.47;100.00;53011.00;4990977;28;20040;-71
2022/12/25 08:38:49;;;;;;;22.67;6.90;;;;;;;-144.47;100.00;52983.22;4989171;28;20057;-68
2022/12/25 08:41:15;;;;;;;17.40;5.80;;;;;;;-144.47;100.00;52991.16;4988488;28;20030;-70
2022/12/25 08:43:40;;;;;;;36.10;7.70;;;;;;;-144.47;100.00;52981.22;4989603;28;20036;-70
2022/12/25 08:46:06;;;;;;;18.73;6.20;;;;;;;-144.47;100.00;52983.22;4990068;28;20034;-72
2022/12/25 08:48:32;;;;;;;19.67;6.68;;;;;;;-144.47;100.00;53013.00;4997876;28;20113;-70
2022/12/25 08:50:58;;;;;;;21.23;5.32;;;;;;;-144.47;100.00;52989.16;4991722;28;20026;-70
2022/12/25 08:53:24;;;;;;;19.10;5.72;;;;;;;-144.47;100.00;52949.44;4991899;28;20054;-73
2022/12/25 08:55:59;;;;;;;26.65;6.07;;;;;;;-144.47;100.00;52993.13;4987542;28;20037;-69
2022/12/25 08:58:25;;;;;;;17.67;6.07;;;;;;;-144.47;100.00;52955.41;4987094;28;20170;-70
2022/12/25 09:00:50;;;;;;;23.42;5.75;;;;;;;-144.47;100.00;52987.19;5008911;28;20599;-67
2022/12/25 09:03:15;;;;;;;19.75;5.93;;;;;;;-144.47;100.00;52963.34;4988431;28;20033;-70
2022/12/25 09:05:41;;;;;;;22.33;6.70;;;;;;;-144.47;100.00;52973.28;4996551;28;20034;-71
2022/12/25 09:08:06;;;;;;;21.75;5.93;;;;;;;-144.47;100.00;52971.28;4993341;28;20030;-71
2022/12/25 09:10:35;;;;;;;25.35;6.30;;;;;;;-144.47;100.00;52977.25;5003194;28;20037;-70
2022/12/25 09:13:00;;;;;;;16.08;4.68;;;;;;;-144.47;100.00;52963.34;5000196;28;20022;-71
2022/12/25 09:15:26;;;;;;;22.60;5.07;;;;;;;-144.47;100.00;52983.22;4997529;28;20396;-70
2022/12/25 09:17:51;;;;;;;12.13;5.03;;;;;;;-144.47;100.00;52949.44;4996811;28;20040;-70
2022/12/25 09:20:16;;;;;;;16.38;4.72;;;;;;;-144.47;100.00;52961.34;4995536;28;20022;-72
2022/12/25 09:22:42;;;;;;;18.98;4.28;;;;;;;-144.47;100.00;52965.34;4993037;28;20030;-71
2022/12/25 09:25:08;;;;;;;20.70;4.28;;;;;;;-144.47;100.00;52943.47;4993277;28;20033;-70
2022/12/25 09:27:33;;;;;;;11.93;4.03;;;;;;;-144.47;100.00;52947.47;5001591;28;20133;-70
2022/12/25 09:29:59;;;;;;;15.65;3.55;;;;;;;-144.47;100.00;52947.47;4997110;28;20033;-68
2022/12/25 09:32:24;;;;;;;9.68;3.30;;;;;;;-144.47;100.00;52965.34;4992242;28;20026;-72
2022/12/25 09:34:49;;;;;;;10.95;3.45;;;;;;;-144.47;99.77;52931.56;4987617;28;20261;-71
2022/12/25 09:37:15;;;;;;;14.45;3.10;;;;;;;-144.47;100.00;52979.22;4988711;28;20080;-69
2022/12/25 09:39:40;;;;;;;12.20;3.50;;;;;;;-144.47;99.72;52913.69;4988206;28;20073;-69
2022/12/25 09:42:19;;;;;;;15.25;4.25;;;;;;;-144.47;99.92;52947.47;4992960;28;20034;-69
2022/12/25 09:44:58;;;;;;;19.33;4.25;;;;;;;-144.47;100.00;52941.50;4983032;28;20064;-71
2022/12/25 09:47:29;;;;;;;9.02;3.50;;;;;;;-144.47;99.77;52941.50;5000723;28;20026;-69
2022/12/25 09:50:11;;;;;;;11.63;3.63;;;;;;;-144.47;99.47;52955.41;4992567;28;20031;-70
2022/12/25 09:52:52;;;;;;;10.85;3.58;;;;;;;-144.47;98.63;52927.59;4991155;28;20030;-70
2022/12/25 09:55:21;;;;;;;14.77;3.83;;;;;;;-144.47;98.50;52951.44;4996427;28;20022;-68
2022/12/25 09:57:51;;;;;;;13.10;2.63;;;;;;;-144.47;97.60;52953.41;4990643;28;20053;-66
2022/12/25 10:00:19;;;;;;;16.55;3.75;;;;;;;-144.47;96.91;52911.69;4991532;28;20026;-69
2022/12/25 10:03:33;;;;;;;9.80;3.38;;;;;;;-144.47;96.59;52917.66;4991397;28;20085;-67
2022/12/25 10:06:05;;;;;;;14.50;3.28;;;;;;;-144.47;96.62;52921.63;4919535;28;20030;-67
2022/12/25 10:08:30;;;;;;;14.20;3.42;;;;;;;-144.47;95.98;52907.72;4995494;28;20105;-69
2022/12/25 10:11:20;;;;;;;15.65;3.67;;;;;;;-144.47;95.94;52947.47;4995460;28;20157;-69
2022/12/25 10:13:54;;;;;;;16.60;3.58;;;;;;;-144.47;96.05;52929.59;4991695;28;20030;-68
2022/12/25 10:16:47;;;;;;;14.38;3.47;;;;;;;-144.47;95.77;52921.63;4990715;28;20026;-67
2022/12/25 10:19:18;;;;;;;11.23;3.67;;;;;;;-144.47;95.27;52941.50;5009844;28;20080;-68
2022/12/25 10:21:44;;;;;;;13.05;4.50;;;;;;;-144.47;95.22;52951.44;4999254;28;20029;-68
2022/12/25 10:24:37;;;;;;;13.73;4.35;;;;;;;-144.47;94.97;52925.59;4990883;28;20022;-72
2022/12/25 10:27:13;;;;;;;12.70;4.00;;;;;;;-144.47;94.47;52935.53;4996551;28;20038;-69
2022/12/25 10:29:39;;;;;;;11.25;4.30;;;;;;;-144.47;94.12;52905.75;4992047;28;20018;-68
2022/12/25 10:32:05;;;;;;;17.80;4.47;;;;;;;-144.47;93.89;52949.44;5008375;28;20022;-70
2022/12/25 10:34:31;;;;;;;12.30;4.25;;;;;;;-144.47;93.38;52911.69;4987998;28;20377;-69
2022/12/25 10:36:57;;;;;;;13.68;3.95;;;;;;;-144.47;93.52;52941.50;5007637;28;20437;-69
2022/12/25 10:39:25;;;;;;;14.23;5.03;;;;;;;-144.47;93.47;52919.66;4992872;28;20037;-68
2022/12/25 10:42:05;;;;;;;12.65;3.90;;;;;;;-144.47;93.27;52937.53;4992836;28;20018;-69
2022/12/25 10:44:32;;;;;;;11.48;4.43;;;;;;;-144.47;93.26;52927.59;4995698;28;20057;-67
2022/12/25 10:46:59;;;;;;;12.20;3.90;;;;;;;-144.47;93.18;52901.78;4991712;28;20068;-69
2022/12/25 10:49:30;;;;;;;14.00;3.80;;;;;;;-144.47;93.21;52903.75;4977828;28;20057;-69
2022/12/25 10:51:56;;;;;;;9.70;3.95;;;;;;;-144.47;93.15;52909.72;4996544;28;20038;-70
2022/12/25 10:54:29;;;;;;;10.88;3.50;;;;;;;-144.47;93.33;52907.72;4993244;28;20113;-66
2022/12/25 10:57:02;;;;;;;10.32;3.47;;;;;;;-144.47;93.32;52921.63;4988729;28;20018;-71
2022/12/25 10:59:49;;;;;;;7.57;3.63;;;;;;;-144.47;93.45;52915.69;4996607;28;20049;-70
2022/12/25 11:02:26;;;;;;;11.82;3.88;;;;;;;-144.47;93.26;52923.63;4996051;28;20080;-71
2022/12/25 11:05:02;;;;;;;18.90;4.20;;;;;;;-144.47;93.09;52929.59;4995275;28;20033;-68
2022/12/25 11:07:29;;;;;;;10.55;3.67;;;;;;;-144.47;92.94;52923.63;4988766;28;20088;-69
2022/12/25 11:09:59;;;;;;;9.18;3.75;;;;;;;-144.47;92.88;52911.69;5004060;28;20041;-70
2022/12/25 11:12:30;;;;;;;16.88;3.83;;;;;;;-144.47;93.04;52901.78;4989415;28;20104;-69
2022/12/25 11:14:59;;;;;;;12.25;3.45;;;;;;;-144.47;93.03;52913.69;4988094;28;20037;-69
2022/12/25 11:17:26;;;;;;;11.15;3.72;;;;;;;-144.47;93.37;52903.75;4985518;28;20057;-69
2022/12/25 11:20:00;;;;;;;10.40;3.42;;;;;;;-144.47;93.33;52911.69;4986518;28;20044;-72
2022/12/25 11:22:27;;;;;;;13.65;4.05;;;;;;;-144.47;93.26;52891.84;4998214;28;20451;-65
2022/12/25 11:24:53;;;;;;;10.77;3.55;;;;;;;-144.47;93.52;52907.72;4982685;28;20401;-68
2022/12/25 11:27:29;;;;;;;10.90;4.35;;;;;;;-144.47;93.66;52895.81;4987650;28;20046;-69
2022/12/25 11:30:00;;;;;;;10.65;4.22;;;;;;;-144.47;93.79;52911.69;4986962;28;20547;-66
2022/12/25 11:32:40;;;;;;;14.63;4.05;;;;;;;-144.47;94.16;52923.63;4985107;28;20110;-69
2022/12/25 11:35:17;;;;;;;17.00;4.57;;;;;;;-144.47;94.40;52919.66;5008336;28;20029;-66
2022/12/25 11:37:50;;;;;;;9.57;3.85;;;;;;;-144.47;94.37;52919.66;5008192;28;20033;-69
2022/12/25 11:40:43;;;;;;;17.02;4.20;;;;;;;-144.47;94.69;52887.88;5002816;28;20018;-67
2022/12/25 11:43:23;;;;;;;10.27;3.47;;;;;;;-144.47;94.83;52913.69;5001685;28;20042;-70
2022/12/25 11:46:03;;;;;;;12.43;3.97;;;;;;;-144.47;94.79;52943.47;4982829;28;20033;-69
2022/12/25 11:48:40;;;;;;;16.95;4.28;;;;;;;-144.47;94.80;52925.59;4982770;28;20747;-68
2022/12/25 11:51:07;;;;;;;11.77;3.53;;;;;;;-144.47;94.54;52903.75;4991419;28;20054;-66
2022/12/25 11:53:40;;;;;;;15.05;4.35;;;;;;;-144.47;94.32;52919.66;5006770;28;20399;-69
2022/12/25 11:56:14;;;;;;;10.60;4.50;;;;;;;-144.47;93.88;52937.53;4988282;28;20022;-71
2022/12/25 11:58:45;;;;;;;18.67;4.40;;;;;;;-144.47;93.61;52927.59;4986097;28;20030;-70
2022/12/25 12:01:35;;;;;;;12.10;4.72;;;;;;;-144.47;93.52;52925.59;4988013;28;20026;-69
2022/12/25 12:04:08;;;;;;;15.75;4.82;;;;;;;-144.47;93.13;52923.63;4995322;28;20045;-67
2022/12/25 12:07:06;;;;;;;12.10;4.50;;;;;;;-144.47;92.51;52891.84;5000182;28;20030;-69
2022/12/25 12:09:41;;;;;;;17.90;4.55;;;;;;;-144.47;91.76;52887.88;4954813;28;20062;-68
2022/12/25 12:12:19;;;;;;;20.63;6.82;;;;;;;-144.47;91.15;52893.81;4992516;28;20034;-68
2022/12/25 12:14:47;;;;;;;14.13;4.90;;;;;;;-144.47;90.68;52901.78;5010204;28;20022;-70
2022/12/25 12:17:15;;;;;;;10.32;3.55;;;;;;;-144.47;90.45;52921.63;4990176;28;20140;-69
2022/12/25 12:19:41;;;;;;;10.63;3.40;;;;;;;-144.47;90.28;52895.81;4998993;28;20035;-70
2022/12/25 12:22:18;;;;;;;19.38;6.35;;;;;;;-144.47;90.18;52909.72;4998002;28;20032;-71
2022/12/25 12:24:45;;;;;;;23.27;8.00;;;;;;;-144.47;90.15;52913.69;4993873;28;20097;-66
2022/12/25 12:27:34;;;;;;;11.43;4.32;;;;;;;-144.47;90.00;52905.75;4991673;28;20109;-68
2022/12/25 12:30:00;;;;;;;12.50;4.47;;;;;;;-144.47;89.65;52905.75;4989207;28;20022;-70
2022/12/25 12:32:34;;;;;;;14.40;4.68;;;;;;;-144.47;89.02;52899.78;4996677;28;20032;-67
2022/12/25 12:35:06;;;;;;;6.47;2.70;;;;;;;-144.47;88.32;52925.59;5000602;28;20029;-69
2022/12/25 12:37:36;;;;;;;18.85;4.68;;;;;;;-144.47;88.02;52881.91;4995198;28;20109;-69
2022/12/25 12:40:04;;;;;;;12.00;3.80;;;;;;;-144.47;87.92;52899.78;4985965;28;20045;-70
2022/12/25 12:42:43;;;;;;;31.88;6.75;;;;;;;-144.47;87.90;52909.72;5001269;28;20052;-73
2022/12/25 12:45:15;;;;;;;9.32;3.17;;;;;;;-144.47;87.94;52885.88;4989866;28;20027;-67
2022/12/25 12:47:45;;;;;;;20.23;5.53;;;;;;;-144.47;87.75;52895.81;4994431;28;20044;-69
2022/12/25 12:50:28;;;;;;;18.33;3.88;;;;;;;-144.47;87.75;52901.78;4992974;28;20391;-68
2022/12/25 12:52:54;;;;;;;19.02;4.75;;;;;;;-144.47;87.74;52897.81;5001382;28;20033;-71